Terminal Aerodrome Forecast
Issued by NWS Wakefield, VA

Home | Current Version | Previous Version | Text Only | Print | Product List | Glossary On
Versions: 1 2 3 4 5 6 7 8 9 10 11 12 13 14 15 16 17 18 19
000
FTUS41 KAKQ 020200 AAA
TAFSBY
TAF AMD
KSBY 020219Z 0202/0224 21004KT P6SM BKN004 OVC020
      TEMPO 0202/0204 2SM -DZ BR OVC015
     FM020400 23005KT 3SM -DZ BR OVC004
     FM020800 23008KT 4SM BR SCT005 OVC012
     FM021500 32013G20KT P6SM BKN050=

USA.gov is the U.S. government's official web portal to all federal, state and local government web resources and services.